Time;durP1;ratioP1;P1;durP2;ratioP2;P2;SDS_P1;SDS_P2;PMS_P1;PMS_P2;Temp;Humidity;BMP_temperature;BMP_pressure;BME280_temperature;BME280_humidity;BME280_pressure;Samples;Min_cycle;Max_cycle;Signal;HPM_P1;HPM_P2
2022/04/11 00:00:50;;;;;;;2.42;1.50;;;;;;;8.43;70.78;101164.50;4995176;28;20389;-83
2022/04/11 00:03:16;;;;;;;2.58;1.20;;;;;;;8.43;69.21;101159.34;5011595;28;20041;-84
2022/04/11 00:05:41;;;;;;;2.15;0.80;;;;;;;8.22;69.42;101143.63;5027870;28;20057;-83
2022/04/11 00:08:07;;;;;;;1.63;0.90;;;;;;;8.13;70.15;101164.53;5011262;28;20030;-84
2022/04/11 00:10:33;;;;;;;1.70;0.85;;;;;;;8.09;69.73;101175.81;5011114;28;20144;-84
2022/04/11 00:13:05;;;;;;;1.70;1.10;;;;;;;7.95;69.56;101170.22;5011186;28;20495;-83
2022/04/11 00:15:33;;;;;;;1.80;1.20;;;;;;;7.79;69.75;101167.25;5011762;28;20026;-83
2022/04/11 00:18:00;;;;;;;1.10;0.80;;;;;;;7.64;69.55;101172.84;5011449;28;20034;-84
2022/04/11 00:20:26;;;;;;;3.20;2.50;;;;;;;7.32;70.16;101172.00;5027758;28;20022;-84
2022/04/11 00:22:51;;;;;;;1.75;0.80;;;;;;;7.54;69.66;101197.16;5027501;28;20026;-84
2022/04/11 00:25:17;;;;;;;1.70;0.90;;;;;;;7.51;69.71;101203.25;4994219;28;20034;-84
2022/04/11 00:27:42;;;;;;;2.90;1.20;;;;;;;7.38;70.30;101217.34;5012402;28;20030;-83
2022/04/11 00:30:08;;;;;;;2.17;1.10;;;;;;;7.18;71.55;101215.28;5011181;28;20411;-83
2022/04/11 00:32:39;;;;;;;2.20;1.33;;;;;;;7.21;71.13;101224.63;4994769;28;20065;-83
2022/04/11 00:35:06;;;;;;;1.55;0.93;;;;;;;7.19;70.64;101222.94;4994890;28;20041;-83
2022/04/11 00:37:32;;;;;;;1.20;0.80;;;;;;;7.19;70.25;101228.09;4994578;28;20037;-83
2022/04/11 00:39:57;;;;;;;1.52;0.77;;;;;;;7.22;69.66;101227.16;4994253;28;20065;-85
2022/04/11 00:42:28;;;;;;;0.93;0.70;;;;;;;7.19;70.21;101219.53;5010894;28;20072;-83
2022/04/11 00:44:53;;;;;;;0.80;0.60;;;;;;;7.23;69.57;101228.00;5027272;28;20029;-83
2022/04/11 00:47:19;;;;;;;1.73;1.30;;;;;;;7.12;69.38;101215.41;5010843;28;20032;-84
2022/04/11 00:49:44;;;;;;;0.80;0.50;;;;;;;7.11;68.29;101214.56;4994406;28;20120;-84
2022/04/11 00:52:10;;;;;;;0.90;0.50;;;;;;;7.05;68.44;101235.28;4994381;28;20033;-83
2022/04/11 00:54:35;;;;;;;1.52;0.60;;;;;;;7.05;68.45;101245.59;4993802;28;20181;-83
2022/04/11 00:57:01;;;;;;;1.05;0.60;;;;;;;6.93;67.78;101250.19;4994363;28;20034;-83
2022/04/11 00:59:27;;;;;;;2.22;0.90;;;;;;;6.71;69.31;101232.69;4993989;28;20046;-83
2022/04/11 01:01:53;;;;;;;1.00;0.65;;;;;;;6.74;68.91;101253.19;4994100;28;20026;-84
2022/04/11 01:04:26;;;;;;;1.35;0.80;;;;;;;6.70;69.55;101248.16;5010575;28;20029;-83
2022/04/11 01:06:53;;;;;;;2.80;1.30;;;;;;;6.67;69.79;101248.22;4994779;28;20022;-84
2022/04/11 01:09:19;;;;;;;1.88;1.30;;;;;;;6.58;70.24;101241.56;5010203;28;20029;-83
2022/04/11 01:11:45;;;;;;;1.13;0.80;;;;;;;6.83;70.13;101267.56;5010167;28;20021;-83
2022/04/11 01:14:10;;;;;;;1.13;0.70;;;;;;;6.72;69.23;101261.81;5010694;28;20041;-83
2022/04/11 01:16:36;;;;;;;1.20;0.70;;;;;;;6.48;69.58;101251.19;4993971;28;20030;-84
2022/04/11 01:19:01;;;;;;;1.00;0.63;;;;;;;6.56;70.74;101269.88;5011607;28;20030;-83
2022/04/11 01:21:33;;;;;;;1.23;0.73;;;;;;;6.29;70.20;101258.50;4993231;28;20537;-83
2022/04/11 01:23:58;;;;;;;1.00;0.70;;;;;;;6.36;71.51;101276.31;5010395;28;20022;-83
2022/04/11 01:26:24;;;;;;;0.80;0.60;;;;;;;6.38;70.96;101265.13;5010240;28;20030;-84
2022/04/11 01:28:49;;;;;;;1.27;0.90;;;;;;;6.19;71.31;101261.25;5010202;28;20041;-83
2022/04/11 01:31:15;;;;;;;0.82;0.50;;;;;;;6.29;71.32;101261.06;4993750;28;20389;-84
2022/04/11 01:33:41;;;;;;;1.40;0.70;;;;;;;6.35;71.35;101279.78;5009875;28;20030;-83
2022/04/11 01:36:06;;;;;;;0.88;0.52;;;;;;;6.20;71.61;101248.41;4993316;28;20056;-84
2022/04/11 01:38:32;;;;;;;0.85;0.50;;;;;;;6.32;71.19;101275.56;4993654;28;20048;-83
2022/04/11 01:40:57;;;;;;;1.00;0.55;;;;;;;6.24;71.44;101274.88;5009929;28;20084;-83
2022/04/11 01:43:24;;;;;;;0.73;0.50;;;;;;;6.33;71.93;101287.53;5010056;28;20026;-83
2022/04/11 01:45:49;;;;;;;1.05;0.50;;;;;;;6.28;71.53;101272.19;5009973;28;20109;-83
2022/04/11 01:48:15;;;;;;;1.02;0.47;;;;;;;6.27;71.29;101269.66;5011205;28;20026;-83
2022/04/11 01:50:41;;;;;;;1.00;0.50;;;;;;;6.22;71.57;101267.19;5025706;28;20029;-83
2022/04/11 01:53:07;;;;;;;0.95;0.60;;;;;;;6.21;72.70;101285.22;5009800;28;20022;-83
2022/04/11 01:55:33;;;;;;;0.98;0.60;;;;;;;6.25;72.47;101281.69;5026243;28;20105;-83
2022/04/11 01:57:59;;;;;;;1.45;0.50;;;;;;;6.33;72.24;101279.81;5009808;28;20107;-83
2022/04/11 02:00:24;;;;;;;0.90;0.60;;;;;;;6.13;72.04;101261.41;4993204;28;20088;-83
2022/04/11 02:02:50;;;;;;;0.50;0.40;;;;;;;6.20;72.48;101294.66;5026160;28;20496;-83
2022/04/11 02:05:15;;;;;;;1.05;0.55;;;;;;;6.33;73.08;101300.38;4993098;28;20038;-83
2022/04/11 02:07:40;;;;;;;0.77;0.50;;;;;;;6.37;73.32;101286.56;5025904;28;20568;-83
2022/04/11 02:10:07;;;;;;;0.60;0.50;;;;;;;6.49;72.59;101296.63;4993069;28;20029;-83
2022/04/11 02:12:32;;;;;;;0.73;0.50;;;;;;;6.44;72.18;101285.56;5010535;28;20416;-83
2022/04/11 02:14:58;;;;;;;0.93;0.55;;;;;;;6.45;72.37;101278.69;5009737;28;20088;-83
2022/04/11 02:17:23;;;;;;;0.90;0.60;;;;;;;6.55;72.04;101296.47;5009390;28;20033;-83
2022/04/11 02:19:49;;;;;;;1.10;0.70;;;;;;;6.43;71.98;101281.31;5009036;28;20034;-83
2022/04/11 02:22:14;;;;;;;1.02;0.70;;;;;;;6.57;72.17;101304.13;5009480;28;20033;-83
2022/04/11 02:24:40;;;;;;;1.20;0.70;;;;;;;6.49;72.12;101273.47;4993170;28;20038;-83
2022/04/11 02:27:05;;;;;;;3.00;2.00;;;;;;;6.60;71.83;101292.09;5010750;28;20041;-83
2022/04/11 02:29:31;;;;;;;2.20;1.10;;;;;;;6.64;71.31;101299.72;4993116;28;20487;-83
2022/04/11 02:31:56;;;;;;;1.30;0.75;;;;;;;6.59;72.29;101304.97;5026003;28;20026;-84
2022/04/11 02:34:25;;;;;;;2.75;1.27;;;;;;;6.44;72.82;101292.44;5009242;28;20104;-84
2022/04/11 02:36:50;;;;;;;2.80;1.75;;;;;;;6.52;71.95;101317.09;4993567;28;20029;-83
2022/04/11 02:39:16;;;;;;;3.25;1.50;;;;;;;6.30;72.12;101279.88;4993096;28;20411;-83
2022/04/11 02:41:41;;;;;;;2.40;1.40;;;;;;;6.44;72.44;101298.41;5009452;28;20033;-83
2022/04/11 02:44:07;;;;;;;1.88;1.35;;;;;;;6.41;72.85;101298.50;4993006;28;20396;-84
2022/04/11 02:46:32;;;;;;;2.63;1.60;;;;;;;6.50;73.09;101321.44;5009998;28;20050;-84
2022/04/11 02:48:58;;;;;;;5.20;1.83;;;;;;;6.38;73.15;101288.25;5013005;28;20041;-83
2022/04/11 02:51:23;;;;;;;2.95;2.13;;;;;;;6.47;72.84;101307.78;4996673;28;20068;-83
2022/04/11 02:53:49;;;;;;;3.83;2.45;;;;;;;6.43;72.50;101317.28;5013234;28;20116;-83
2022/04/11 02:56:14;;;;;;;4.07;2.63;;;;;;;6.50;72.30;101326.56;5012691;28;20039;-83
2022/04/11 02:58:40;;;;;;;3.97;2.28;;;;;;;6.48;72.49;101341.16;4996225;28;20046;-83
2022/04/11 03:01:05;;;;;;;3.40;2.00;;;;;;;6.64;72.06;101333.13;4996396;28;20041;-85
2022/04/11 03:03:31;;;;;;;3.53;2.42;;;;;;;7.52;68.23;101317.38;4996265;28;20041;-84
2022/04/11 03:05:56;;;;;;;3.28;2.25;;;;;;;8.93;63.95;101324.59;5012533;28;20030;-85
2022/04/11 03:08:22;;;;;;;3.00;2.35;;;;;;;8.41;64.39;101326.16;5028968;28;20069;-85
2022/04/11 03:10:47;;;;;;;4.40;3.05;;;;;;;8.64;63.10;101326.31;4996166;28;20050;-85
2022/04/11 03:13:13;;;;;;;6.00;3.92;;;;;;;8.36;64.53;101328.88;4996252;28;20045;-85
2022/04/11 03:15:38;;;;;;;6.55;4.60;;;;;;;7.96;65.35;101329.94;4996114;28;20095;-85
2022/04/11 03:18:04;;;;;;;8.55;5.60;;;;;;;7.66;66.19;101326.41;5011991;28;20033;-85
2022/04/11 03:20:29;;;;;;;10.10;5.88;;;;;;;7.57;67.04;101338.69;4996089;28;20034;-85
2022/04/11 03:22:55;;;;;;;6.88;4.97;;;;;;;7.47;67.20;101335.47;5012064;28;20030;-85
2022/04/11 03:25:20;;;;;;;5.88;5.18;;;;;;;7.38;67.34;101343.47;5009965;28;20519;-86
2022/04/11 03:27:46;;;;;;;5.90;4.10;;;;;;;7.32;66.22;101343.59;5012017;28;20141;-87
2022/04/11 03:30:11;;;;;;;6.75;4.50;;;;;;;6.95;67.83;101341.03;4979334;28;20033;-88
2022/04/11 03:32:37;;;;;;;6.78;4.40;;;;;;;6.86;68.18;101348.06;4994603;28;20065;-86
2022/04/11 03:35:03;;;;;;;6.18;4.25;;;;;;;6.72;68.51;101354.41;4995742;28;20026;-86
2022/04/11 03:37:28;;;;;;;5.35;4.10;;;;;;;6.50;68.99;101326.56;4979274;28;20072;-86
2022/04/11 03:39:53;;;;;;;5.45;4.25;;;;;;;6.31;69.87;101326.09;4995676;28;20026;-85
2022/04/11 03:42:19;;;;;;;6.82;4.25;;;;;;;6.36;69.21;101351.69;5011388;28;20040;-86
2022/04/11 03:44:44;;;;;;;5.72;3.88;;;;;;;6.24;67.21;101333.97;4994835;28;20034;-87
2022/04/11 03:47:10;;;;;;;7.45;4.63;;;;;;;6.42;66.75;101366.16;5011160;28;20026;-87
2022/04/11 03:49:36;;;;;;;6.70;4.57;;;;;;;6.23;67.22;101342.53;4995135;28;20061;-87
2022/04/11 03:52:01;;;;;;;6.63;4.63;;;;;;;6.42;65.45;101369.56;4995172;28;20026;-79
2022/04/11 03:54:27;;;;;;;6.78;4.63;;;;;;;6.31;64.19;101349.22;5011555;28;20583;-79
2022/04/11 03:56:52;;;;;;;11.23;6.35;;;;;;;6.39;64.49;101364.50;5010403;28;20037;-79
2022/04/11 03:59:18;;;;;;;10.40;6.03;;;;;;;6.38;65.04;101370.50;4993572;28;20042;-79
2022/04/11 04:01:43;;;;;;;15.20;7.55;;;;;;;6.38;65.02;101370.50;4978399;28;20045;-79
2022/04/11 04:04:09;;;;;;;12.27;6.40;;;;;;;6.28;63.23;101364.69;4995261;28;20034;-79
2022/04/11 04:06:35;;;;;;;8.77;6.20;;;;;;;6.40;62.46;101384.19;4995192;28;20036;-78
2022/04/11 04:09:01;;;;;;;8.70;5.72;;;;;;;6.44;63.07;101384.97;5011187;28;20499;-79
2022/04/11 04:11:26;;;;;;;8.75;5.60;;;;;;;6.31;63.68;101379.22;4992922;28;20076;-85
2022/04/11 04:13:52;;;;;;;11.10;5.93;;;;;;;6.06;61.83;101342.00;4993960;28;20127;-81
2022/04/11 04:16:17;;;;;;;9.23;5.85;;;;;;;6.13;62.05;101371.84;5007535;28;20121;-83
2022/04/11 04:18:43;;;;;;;8.73;5.80;;;;;;;6.33;62.03;101395.44;4978490;28;20514;-81
2022/04/11 04:21:08;;;;;;;9.07;5.60;;;;;;;6.37;62.27;101386.78;5005761;28;20058;-80
2022/04/11 04:23:35;;;;;;;8.50;6.00;;;;;;;6.31;61.99;101379.22;5011594;28;20050;-82
2022/04/11 04:26:00;;;;;;;11.90;6.18;;;;;;;6.40;62.47;101399.59;5010586;28;20033;-78
2022/04/11 04:28:26;;;;;;;10.55;6.97;;;;;;;6.33;61.77;101395.44;5009970;28;20037;-83
2022/04/11 04:30:51;;;;;;;13.55;7.88;;;;;;;6.24;61.80;101401.59;5010020;28;20029;-85
2022/04/11 04:33:17;;;;;;;13.02;9.07;;;;;;;6.15;62.26;101398.38;4993636;28;20112;-87
2022/04/11 04:35:42;;;;;;;16.65;13.32;;;;;;;6.10;61.09;101400.19;5010770;28;20498;-87
2022/04/11 04:38:08;;;;;;;16.38;12.80;;;;;;;6.10;60.98;101410.47;4978263;28;20565;-86
2022/04/11 04:40:33;;;;;;;18.95;13.52;;;;;;;6.10;59.94;101410.47;4986123;28;20027;-86
2022/04/11 04:42:59;;;;;;;18.40;12.55;;;;;;;6.11;59.90;101407.00;4974195;28;20173;-87
2022/04/11 04:45:25;;;;;;;16.83;12.05;;;;;;;6.22;60.32;101426.50;4956866;28;20030;-90
2022/04/11 04:47:50;;;;;;;17.73;11.82;;;;;;;6.22;62.24;101430.78;4975190;28;20121;-81
2022/04/11 04:50:15;;;;;;;26.27;15.55;;;;;;;6.17;61.75;101420.56;4973960;28;20022;-80
2022/04/11 04:52:41;;;;;;;20.13;12.35;;;;;;;6.15;62.67;101444.59;4990945;28;20089;-85
2022/04/11 04:55:07;;;;;;;17.40;11.82;;;;;;;6.18;62.06;101434.28;4981422;28;20022;-84
2022/04/11 04:57:33;;;;;;;14.13;8.70;;;;;;;6.24;61.58;101441.88;4990595;28;20026;-85
2022/04/11 04:59:59;;;;;;;15.77;8.57;;;;;;;6.23;59.77;101442.75;4961551;28;20050;-88
2022/04/11 05:02:25;;;;;;;23.75;10.73;;;;;;;6.21;59.60;101440.22;4992709;28;20045;-88
2022/04/11 05:04:50;;;;;;;24.02;10.88;;;;;;;6.31;59.61;101449.47;4968056;28;20492;-87
2022/04/11 05:07:16;;;;;;;25.95;10.68;;;;;;;6.34;58.33;101456.25;4978116;28;20048;-81
2022/04/11 05:09:41;;;;;;;23.17;10.35;;;;;;;6.19;58.43;101426.53;4975407;28;20053;-84
2022/04/11 05:12:07;;;;;;;20.83;10.25;;;;;;;6.39;58.87;101451.91;5010065;28;20025;-85
2022/04/11 05:14:32;;;;;;;17.13;9.52;;;;;;;6.45;58.71;101459.47;4992950;28;20102;-83
2022/04/11 05:16:58;;;;;;;11.32;5.85;;;;;;;6.29;57.84;101469.19;4992568;28;20034;-84
2022/04/11 05:19:23;;;;;;;11.05;5.78;;;;;;;6.36;57.46;101458.78;5010016;28;20084;-81
2022/04/11 05:21:49;;;;;;;11.00;5.90;;;;;;;6.38;57.26;101457.88;5001630;28;20026;-84
2022/04/11 05:24:14;;;;;;;12.90;6.88;;;;;;;6.58;57.84;101465.22;4992893;28;20523;-83
2022/04/11 05:26:40;;;;;;;9.15;5.95;;;;;;;6.75;56.92;101477.75;5009165;28;20057;-79
2022/04/11 05:29:05;;;;;;;12.23;7.45;;;;;;;6.79;56.74;101466.56;4992075;28;20407;-83
2022/04/11 05:31:31;;;;;;;12.50;7.75;;;;;;;6.86;55.45;101475.81;4992361;28;20030;-82
2022/04/11 05:33:56;;;;;;;14.32;8.60;;;;;;;7.01;57.73;101479.81;4992867;28;20045;-81
2022/04/11 05:36:22;;;;;;;12.30;6.60;;;;;;;6.95;56.02;101478.22;4992371;28;20443;-81
2022/04/11 05:38:47;;;;;;;9.25;6.47;;;;;;;6.99;57.10;101467.00;4992760;28;20088;-84
2022/04/11 05:41:14;;;;;;;8.52;5.55;;;;;;;7.29;55.72;101495.53;4992485;28;20068;-83
2022/04/11 05:43:40;;;;;;;7.47;3.78;;;;;;;7.37;53.10;101493.63;4991511;28;20026;-81
2022/04/11 05:46:06;;;;;;;7.72;3.88;;;;;;;7.51;52.44;101480.47;4992763;28;20034;-81
2022/04/11 05:48:32;;;;;;;6.40;3.72;;;;;;;7.63;52.86;101490.47;4976178;28;20058;-80
2022/04/11 05:50:59;;;;;;;7.93;3.97;;;;;;;7.72;51.80;101492.84;5008935;28;20049;-90
2022/04/11 05:53:25;;;;;;;6.85;4.00;;;;;;;7.79;51.94;101475.53;4965931;28;20053;-81
2022/04/11 05:55:51;;;;;;;32.17;24.98;;;;;;;8.01;52.51;101497.31;4972432;28;20030;-86
2022/04/11 05:58:16;;;;;;;8.30;4.70;;;;;;;8.11;52.03;101497.91;4957052;28;20480;-84
2022/04/11 06:00:41;;;;;;;6.63;3.95;;;;;;;8.20;51.38;101480.50;4987108;28;20057;-91
2022/04/11 06:03:07;;;;;;;9.35;4.43;;;;;;;8.40;51.12;101485.16;4992804;28;20076;-87
2022/04/11 06:05:32;;;;;;;6.30;3.50;;;;;;;8.53;49.99;101483.94;4991861;28;20418;-83
2022/04/11 06:07:58;;;;;;;8.02;4.47;;;;;;;8.61;49.50;101489.75;5006106;28;20487;-81
2022/04/11 06:10:24;;;;;;;13.65;4.65;;;;;;;8.76;48.49;101488.50;4985961;28;20037;-86
2022/04/11 06:12:50;;;;;;;7.45;3.53;;;;;;;8.73;49.35;101483.41;4975417;28;20026;-82
2022/04/11 06:15:17;;;;;;;11.80;4.53;;;;;;;8.92;49.38;101476.00;4977813;28;20052;-85
2022/04/11 06:17:43;;;;;;;7.55;3.60;;;;;;;8.99;47.69;101489.59;4995987;28;20118;-84
2022/04/11 06:20:10;;;;;;;6.35;3.33;;;;;;;9.00;47.03;101473.19;4972609;28;20039;-84
2022/04/11 06:22:40;;;;;;;6.20;3.90;;;;;;;9.23;48.33;101494.03;4975409;28;20062;-87
2022/04/11 06:25:08;;;;;;;7.70;3.83;;;;;;;9.40;47.90;101491.78;4960272;28;20397;-84
2022/04/11 06:27:33;;;;;;;10.88;4.88;;;;;;;9.30;47.80;101472.28;4976560;28;20026;-88
2022/04/11 06:30:00;;;;;;;9.23;4.72;;;;;;;9.50;47.99;101487.19;5010353;28;20030;-91
2022/04/11 06:32:27;;;;;;;6.97;4.20;;;;;;;9.75;45.55;101503.63;5007816;28;20523;-88
2022/04/11 06:34:52;;;;;;;8.80;4.57;;;;;;;9.75;46.65;101482.13;5006052;28;20333;-92
2022/04/11 06:37:18;;;;;;;7.80;3.80;;;;;;;9.70;46.14;101465.91;4996061;28;20032;-85
2022/04/11 06:39:43;;;;;;;9.55;4.10;;;;;;;10.07;44.25;101501.75;4996041;28;20022;-85
2022/04/11 06:42:09;;;;;;;7.72;4.75;;;;;;;10.17;44.63;101495.38;4987983;28;20030;-90
2022/04/11 06:44:37;;;;;;;7.07;3.63;;;;;;;10.11;42.98;101489.53;4977030;28;20022;-89
2022/04/11 06:47:03;;;;;;;5.63;3.20;;;;;;;10.17;41.87;101499.69;4962047;28;20034;-91
2022/04/11 06:49:29;;;;;;;8.82;3.50;;;;;;;10.29;42.04;101499.31;4987515;28;20038;-86
2022/04/11 06:51:55;;;;;;;7.18;3.88;;;;;;;10.27;42.97;101490.78;4995489;28;20037;-86
2022/04/11 06:54:21;;;;;;;7.60;3.60;;;;;;;10.38;42.43;101503.34;4995484;28;20076;-85
2022/04/11 06:56:46;;;;;;;9.50;4.68;;;;;;;10.51;42.75;101495.09;5011276;28;20530;-87
2022/04/11 06:59:12;;;;;;;4.57;2.42;;;;;;;10.50;40.66;101483.06;5000677;28;20054;-80
2022/04/11 07:01:37;;;;;;;5.60;3.72;;;;;;;10.56;41.57;101500.97;4996241;28;20038;-90
2022/04/11 07:04:03;;;;;;;5.75;3.10;;;;;;;10.66;40.91;101511.00;4979551;28;20046;-82
2022/04/11 07:06:28;;;;;;;6.78;3.35;;;;;;;10.63;41.03;101499.00;4995236;28;20496;-85
2022/04/11 07:08:54;;;;;;;7.38;3.63;;;;;;;10.71;39.90;101509.91;5011265;28;20026;-89
2022/04/11 07:11:19;;;;;;;7.18;4.07;;;;;;;10.84;41.17;101515.53;4977443;28;20061;-90
2022/04/11 07:13:45;;;;;;;5.38;2.97;;;;;;;10.75;39.49;101502.91;4977860;28;20127;-85
2022/04/11 07:16:11;;;;;;;7.30;4.50;;;;;;;11.04;41.35;101526.00;5011220;28;20037;-87
2022/04/11 07:18:36;;;;;;;3.50;2.25;;;;;;;11.06;40.08;101531.97;4994706;28;20038;-84
2022/04/11 07:21:02;;;;;;;9.23;3.92;;;;;;;11.23;40.06;101525.31;4958916;28;20129;-84
2022/04/11 07:23:27;;;;;;;7.43;3.28;;;;;;;11.26;39.85;101518.28;4975629;28;20384;-79
2022/04/11 07:25:53;;;;;;;7.20;3.60;;;;;;;11.33;39.61;101521.50;4991390;28;20116;-86
2022/04/11 07:28:18;;;;;;;5.10;3.38;;;;;;;11.31;38.99;101510.34;4994877;28;20084;-82
2022/04/11 07:30:44;;;;;;;7.53;3.97;;;;;;;11.49;38.93;101518.22;5002945;28;20140;-84
2022/04/11 07:33:09;;;;;;;4.53;2.60;;;;;;;11.47;37.43;101524.38;4992794;28;20080;-87
2022/04/11 07:35:35;;;;;;;9.02;3.88;;;;;;;11.65;38.69;101539.22;5009585;28;20684;-91
2022/04/11 07:38:01;;;;;;;15.30;10.75;;;;;;;11.60;39.57;101523.03;4992883;28;20034;-84
2022/04/11 07:40:30;;;;;;;6.30;3.78;;;;;;;11.88;38.03;101547.88;5007300;28;20045;-82
2022/04/11 07:42:56;;;;;;;4.95;2.55;;;;;;;11.77;35.74;101543.94;4975458;28;20026;-80
2022/04/11 07:45:21;;;;;;;5.82;2.80;;;;;;;11.80;36.12;101548.19;4992469;28;20442;-80
2022/04/11 07:47:47;;;;;;;12.07;4.43;;;;;;;11.55;36.94;101537.91;4993102;28;20068;-85
2022/04/11 07:50:13;;;;;;;6.55;3.60;;;;;;;11.43;37.72;101484.81;4996766;28;20036;-79
2022/04/11 07:52:40;;;;;;;5.75;2.80;;;;;;;11.92;37.30;101536.50;5027425;28;20052;-84
2022/04/11 07:55:06;;;;;;;7.50;3.97;;;;;;;12.00;37.16;101537.03;4992610;28;20345;-82
2022/04/11 07:57:32;;;;;;;5.00;3.70;;;;;;;12.08;36.84;101521.97;4991776;28;20040;-84
2022/04/11 07:59:57;;;;;;;6.53;3.92;;;;;;;12.18;37.13;101519.84;4993088;28;20427;-82
2022/04/11 08:02:26;;;;;;;6.45;3.33;;;;;;;12.10;36.24;101534.91;5010684;28;20431;-85
2022/04/11 08:04:52;;;;;;;5.30;3.33;;;;;;;12.25;35.53;101552.44;4994411;28;20030;-83
2022/04/11 08:07:18;;;;;;;5.43;3.05;;;;;;;12.20;34.43;101546.59;5010495;28;20070;-83
2022/04/11 08:09:44;;;;;;;5.35;3.42;;;;;;;12.09;35.75;101539.22;5016018;28;20487;-90
2022/04/11 08:12:10;;;;;;;32.38;20.00;;;;;;;12.28;34.62;101524.59;5015829;28;20022;-84
2022/04/11 08:14:35;;;;;;;4.43;2.65;;;;;;;12.32;35.11;101549.53;4978076;28;20040;-83
2022/04/11 08:17:03;;;;;;;8.60;3.47;;;;;;;12.45;34.61;101551.59;4993357;28;20037;-82
2022/04/11 08:19:31;;;;;;;6.32;3.42;;;;;;;12.16;34.43;101534.66;5010131;28;20018;-81
2022/04/11 08:21:57;;;;;;;4.30;2.70;;;;;;;12.35;34.13;101540.75;4982227;28;20026;-81
2022/04/11 08:24:23;;;;;;;8.30;4.18;;;;;;;12.44;35.27;101557.72;4991175;28;20030;-82
2022/04/11 08:26:48;;;;;;;6.15;3.25;;;;;;;12.24;34.47;101543.81;4963389;28;20140;-85
2022/04/11 08:29:14;;;;;;;7.78;3.80;;;;;;;12.43;34.36;101546.47;5010686;28;20049;-84
2022/04/11 08:31:40;;;;;;;6.45;3.92;;;;;;;12.30;34.64;101524.56;4993055;28;20038;-86
2022/04/11 08:34:06;;;;;;;8.55;4.43;;;;;;;12.53;34.51;101571.13;4999095;28;20026;-87
2022/04/11 08:36:31;;;;;;;8.50;4.15;;;;;;;12.44;34.56;101542.97;4974589;28;20089;-84
2022/04/11 08:38:57;;;;;;;4.40;3.00;;;;;;;12.70;35.12;101560.06;4974264;28;20030;-83
2022/04/11 08:41:22;;;;;;;5.80;3.60;;;;;;;12.72;35.25;101566.00;4973509;28;20504;-85
2022/04/11 08:43:48;;;;;;;6.45;3.63;;;;;;;12.65;34.77;101559.38;4956359;28;20030;-83
2022/04/11 08:46:16;;;;;;;5.53;3.63;;;;;;;12.66;34.54;101544.66;4957002;28;20034;-84
2022/04/11 08:51:26;;;;;;;7.38;3.30;;;;;;;12.90;34.24;101559.19;4995383;28;20092;-81
2022/04/11 08:53:52;;;;;;;5.28;2.80;;;;;;;12.84;32.78;101555.09;4976899;28;20473;-86
2022/04/11 08:56:17;;;;;;;4.88;3.15;;;;;;;12.99;33.94;101568.34;4993398;28;20030;-86
2022/04/11 08:58:43;;;;;;;4.78;2.95;;;;;;;13.04;32.55;101581.94;4976982;28;20077;-90
2022/04/11 09:01:08;;;;;;;6.47;3.58;;;;;;;12.98;32.52;101570.09;4991267;28;20040;-85
2022/04/11 09:03:34;;;;;;;7.60;3.45;;;;;;;13.00;32.84;101572.63;4990535;28;20072;-84
2022/04/11 09:06:07;;;;;;;4.95;3.30;;;;;;;13.13;32.92;101576.34;4974140;28;20451;-83
2022/04/11 09:08:49;;;;;;;4.28;3.03;;;;;;;13.28;32.64;101583.50;5007468;28;20110;-83
2022/04/11 09:11:36;;;;;;;6.10;3.55;;;;;;;13.34;31.56;101562.41;4991273;28;20088;-81
2022/04/11 09:14:06;;;;;;;4.60;2.67;;;;;;;13.52;30.99;101572.88;4988086;28;20041;-90
2022/04/11 09:16:43;;;;;;;4.35;2.70;;;;;;;13.66;32.14;101570.47;4988393;28;20021;-81
2022/04/11 09:19:20;;;;;;;4.65;2.45;;;;;;;13.46;31.28;101563.59;4993850;28;20034;-84
2022/04/11 09:21:46;;;;;;;7.28;3.00;;;;;;;13.63;31.99;101576.69;5007707;28;20029;-86
2022/04/11 09:24:17;;;;;;;3.78;2.83;;;;;;;13.47;30.75;101545.38;4977722;28;20511;-86
2022/04/11 09:26:42;;;;;;;7.35;3.40;;;;;;;13.58;33.29;101541.44;4985407;28;20042;-86
2022/04/11 09:29:08;;;;;;;7.32;3.38;;;;;;;13.56;31.24;101559.66;4981078;28;20389;-86
2022/04/11 09:31:34;;;;;;;5.53;3.40;;;;;;;13.54;31.95;101550.25;5005382;28;20084;-81
2022/04/11 09:34:38;;;;;;;5.13;3.13;;;;;;;13.78;31.57;101555.16;4992433;28;20026;-89
2022/04/11 09:37:04;;;;;;;5.50;3.85;;;;;;;13.87;31.98;101564.28;4994276;28;20041;-83
2022/04/11 09:39:33;;;;;;;4.93;3.15;;;;;;;13.67;31.46;101539.22;4976564;28;20026;-82
2022/04/11 09:41:59;;;;;;;6.95;3.38;;;;;;;13.88;32.81;101560.78;5007467;28;20495;-90
2022/04/11 09:44:25;;;;;;;4.55;3.40;;;;;;;14.20;31.54;101555.75;4996108;28;20049;-86
2022/04/11 09:46:52;;;;;;;5.50;3.80;;;;;;;14.41;30.94;101553.84;4992835;28;20045;-90
2022/04/11 09:49:18;;;;;;;5.25;3.05;;;;;;;14.09;30.95;101527.66;4982189;28;20795;-84
2022/04/11 09:52:12;;;;;;;6.13;3.35;;;;;;;14.06;32.68;101548.66;5008852;28;20026;-83
2022/04/11 09:54:44;;;;;;;6.28;3.20;;;;;;;14.19;30.57;101554.09;5001129;28;20029;-85
2022/04/11 09:57:14;;;;;;;4.60;3.42;;;;;;;14.02;30.89;101558.34;4986729;28;20046;-85
2022/04/11 09:59:39;;;;;;;6.00;3.63;;;;;;;14.04;30.36;101540.88;4964089;28;20058;-82
2022/04/11 10:02:06;;;;;;;7.25;3.78;;;;;;;14.32;30.16;101555.16;4980331;28;20436;-86
2022/04/11 10:04:31;;;;;;;3.88;2.55;;;;;;;14.33;29.48;101551.63;4973499;28;20048;-90
2022/04/11 10:06:57;;;;;;;3.92;2.70;;;;;;;14.27;31.11;101551.94;4975137;28;20470;-86
2022/04/11 10:09:23;;;;;;;4.60;2.85;;;;;;;14.16;30.23;101556.81;5007442;28;20037;-86
2022/04/11 10:11:51;;;;;;;4.75;3.30;;;;;;;14.11;29.99;101530.19;4992151;28;20026;-90
2022/04/11 10:14:23;;;;;;;5.82;3.17;;;;;;;14.10;30.01;101557.97;4981599;28;20018;-87
2022/04/11 10:16:48;;;;;;;5.72;3.47;;;;;;;14.04;30.29;101527.03;5001663;28;20402;-86
2022/04/11 10:19:14;;;;;;;4.10;3.00;;;;;;;14.31;30.91;101546.50;4984374;28;20037;-89
2022/04/11 10:21:41;;;;;;;5.20;3.90;;;;;;;14.56;30.45;101546.16;5008060;28;20121;-86
2022/04/11 10:24:13;;;;;;;5.95;3.20;;;;;;;14.59;29.76;101559.00;5012482;28;20029;-87
2022/04/11 10:26:52;;;;;;;3.75;2.70;;;;;;;14.35;29.63;101544.56;4986692;28;20041;-87
2022/04/11 10:29:34;;;;;;;5.32;3.10;;;;;;;14.40;29.39;101544.34;4955416;28;20113;-89
2022/04/11 10:32:13;;;;;;;5.80;3.20;;;;;;;14.48;29.77;101550.91;5006451;28;20239;-89
2022/04/11 10:34:46;;;;;;;6.68;4.70;;;;;;;14.57;30.03;101570.44;5002295;28;20034;-87
2022/04/11 10:37:11;;;;;;;;;;;;;;;14.28;29.62;101569.25;5011837;28;20036;-83
2022/04/11 10:39:39;;;;;;;4.22;2.75;;;;;;;14.16;30.18;101536.00;5010741;28;19917;-83
2022/04/11 10:42:09;;;;;;;3.85;3.05;;;;;;;14.21;30.15;101544.44;4992050;28;20029;-84
2022/04/11 10:44:48;;;;;;;5.97;2.78;;;;;;;14.14;29.18;101514.41;5009009;28;20565;-86
2022/04/11 10:47:17;;;;;;;3.72;2.85;;;;;;;14.77;29.51;101557.22;5001152;28;20042;-83
2022/04/11 10:49:48;;;;;;;5.03;3.00;;;;;;;14.77;29.07;101545.97;4999692;28;20084;-87
2022/04/11 10:52:36;;;;;;;3.95;2.80;;;;;;;14.76;29.22;101549.50;5014142;28;20479;-87
2022/04/11 10:55:15;;;;;;;3.80;2.63;;;;;;;14.76;28.14;101562.53;4973411;28;20026;-89
2022/04/11 10:57:44;;;;;;;4.75;3.00;;;;;;;14.76;28.65;101559.91;4979298;28;20092;-87
2022/04/11 11:00:11;;;;;;;4.78;2.75;;;;;;;14.72;28.98;101532.31;4996841;28;20061;-90
2022/04/11 11:03:04;;;;;;;6.10;3.15;;;;;;;15.05;27.62;101572.28;4967884;28;20033;-92
2022/04/11 11:05:47;;;;;;;4.15;2.70;;;;;;;14.85;27.69;101557.69;5003213;28;20045;-88
2022/04/11 11:08:13;;;;;;;4.95;3.15;;;;;;;14.61;28.83;101507.69;5009545;28;20034;-87
2022/04/11 11:10:58;;;;;;;4.43;2.65;;;;;;;15.01;26.76;101552.50;5010731;28;20032;-87
2022/04/11 11:13:39;;;;;;;5.30;2.75;;;;;;;15.16;26.31;101561.28;5014868;28;20125;-90
2022/04/11 11:16:08;;;;;;;4.65;2.58;;;;;;;15.11;25.90;101551.09;5005160;28;20891;-87
2022/04/11 11:18:46;;;;;;;4.97;2.30;;;;;;;14.98;25.67;101563.09;5010157;28;20042;-86
2022/04/11 11:21:15;;;;;;;4.13;2.70;;;;;;;15.16;25.85;101546.47;4997523;28;20112;-84
2022/04/11 11:23:41;;;;;;;11.65;5.80;;;;;;;14.92;26.50;101539.94;5010334;28;20056;-86
2022/04/11 11:26:11;;;;;;;6.65;3.08;;;;;;;15.38;25.53;101568.78;5003853;28;20030;-81
2022/04/11 11:28:37;;;;;;;6.28;3.20;;;;;;;15.26;25.69;101556.41;4984792;28;20030;-79
2022/04/11 11:31:03;;;;;;;3.67;2.50;;;;;;;14.50;26.59;101564.69;4990889;28;20415;-86